Time;durP1;ratioP1;P1;durP2;ratioP2;P2;SDS_P1;SDS_P2;PMS_P1;PMS_P2;Temp;Humidity;BMP_temperature;BMP_pressure;BME280_temperature;BME280_humidity;BME280_pressure;Samples;Min_cycle;Max_cycle;Signal;HPM_P1;HPM_P2
2023/11/01 05:39:05;847522.00;2.83;1464.13;0.00;0.00;0.62;;;;;16.70;1.00;;;;;;2516518;40;3406;31
2023/11/01 08:17:48;1375990.00;4.59;2411.87;0.00;0.00;0.62;;;;;17.80;1.00;;;;;;2278965;61;981;-92
2023/11/01 09:58:11;657887.00;2.19;1134.28;0.00;0.00;0.62;;;;;19.60;1.00;;;;;;2282452;61;1060;-90
2023/11/01 10:39:27;881962.00;2.94;1524.46;0.00;0.00;0.62;;;;;20.20;1.00;;;;;;2282591;61;976;-92
2023/11/01 12:12:25;671338.00;2.24;1157.57;0.00;0.00;0.62;;;;;19.60;1.00;;;;;;1971788;56;3583;-88
2023/11/01 12:27:30;276029.00;0.92;476.71;36237.00;0.12;63.38;;;;;19.40;1.00;;;;;;2273701;61;1388;-88
2023/11/01 12:35:06;543257.00;1.81;936.34;0.00;0.00;0.62;;;;;19.60;1.00;;;;;;2273685;61;1407;-88
2023/11/01 12:50:08;517003.00;1.72;891.10;0.00;0.00;0.62;;;;;18.90;1.00;;;;;;2283584;55;3647;-89
2023/11/01 13:05:02;782254.00;2.61;1350.19;0.00;0.00;0.62;;;;;19.00;1.00;;;;;;828633;40;3450;-86
2023/11/01 13:17:32;582480.00;1.94;1003.98;0.00;0.00;0.62;;;;;18.50;1.00;;;;;;2281595;61;1419;-88
2023/11/01 13:38:20;207300.00;0.69;358.49;82193.00;0.27;142.83;;;;;19.00;1.00;;;;;;1840609;55;2099;-88
2023/11/01 14:08:21;1305291.00;4.35;2281.79;171232.00;0.57;296.39;;;;;18.60;1.00;;;;;;2308143;40;3455;-87
2023/11/01 14:10:50;735607.00;2.45;1269.04;8753.00;0.03;15.79;;;;;18.80;1.00;;;;;;2296940;39;3622;-86
2023/11/01 14:15:45;570615.00;1.90;983.51;4118.00;0.01;7.76;;;;;18.90;1.00;;;;;;2298518;55;3639;-87
2023/11/01 14:18:18;860176.00;2.87;1486.28;0.00;0.00;0.62;;;;;18.90;1.00;;;;;;1949910;40;3551;-88
2023/11/01 14:23:14;1012925.00;3.38;1755.38;72964.00;0.24;126.88;;;;;18.70;1.00;;;;;;2276883;61;1892;-88
2023/11/01 14:30:42;1085452.00;3.62;1884.43;78832.00;0.26;137.02;;;;;18.90;1.00;;;;;;2277876;61;1394;-88
2023/11/01 14:33:09;615575.00;2.05;1061.12;18920.00;0.06;33.40;;;;;18.90;1.00;;;;;;2287856;39;3641;-86
2023/11/01 14:35:36;972094.00;3.24;1683.11;54450.00;0.18;94.88;;;;;18.80;1.00;;;;;;2316899;39;3597;-88
2023/11/01 14:40:34;1205095.00;4.02;2099.43;53971.00;0.18;94.05;;;;;18.90;1.00;;;;;;2273649;61;1396;-86
2023/11/01 14:43:04;578206.00;1.93;996.60;98310.00;0.33;170.65;;;;;18.60;1.00;;;;;;2273641;61;1927;-86
2023/11/01 14:53:03;439336.00;1.46;757.44;0.00;0.00;0.62;;;;;18.30;1.00;;;;;;2285730;60;1401;-88
2023/11/01 14:55:30;545095.00;1.82;939.50;18975.00;0.06;33.50;;;;;18.30;1.00;;;;;;2284425;60;1060;-86
2023/11/01 14:57:57;1033122.00;3.44;1791.22;176649.00;0.59;305.72;;;;;18.20;1.00;;;;;;2284258;60;1654;-84
2023/11/01 15:00:25;547801.00;1.83;944.17;12808.00;0.04;22.81;;;;;18.00;1.00;;;;;;2284404;60;1008;-86
2023/11/01 15:02:52;500962.00;1.67;863.48;0.00;0.00;0.62;;;;;18.00;1.00;;;;;;2284229;60;1934;-87
2023/11/01 15:05:19;900715.00;3.00;1557.38;81881.00;0.27;142.29;;;;;18.10;1.00;;;;;;2284239;60;1533;-86
2023/11/01 15:07:47;596163.00;1.99;1027.60;0.00;0.00;0.62;;;;;18.20;1.00;;;;;;2284288;60;1042;-87
2023/11/01 15:10:16;1233149.00;4.11;2150.27;64741.00;0.22;112.67;;;;;18.20;1.00;;;;;;2284323;60;1179;-87
2023/11/01 15:12:43;1019484.00;3.40;1767.01;138537.00;0.46;240.05;;;;;18.30;1.00;;;;;;2284163;60;1379;-87
2023/11/01 15:15:10;1109171.00;3.70;1926.83;98830.00;0.33;171.55;;;;;18.10;1.00;;;;;;2284271;60;1113;-87
2023/11/01 15:17:38;926035.00;3.09;1601.89;154051.00;0.51;266.79;;;;;18.20;1.00;;;;;;2284219;60;1091;-86
2023/11/01 15:20:05;489538.00;1.63;843.81;83835.00;0.28;145.66;;;;;18.40;1.00;;;;;;2284233;60;938;-86
2023/11/01 15:22:32;566548.00;1.89;976.49;80248.00;0.27;139.47;;;;;18.40;1.00;;;;;;2284728;60;1992;-88
2023/11/01 15:24:59;395440.00;1.32;681.97;76969.00;0.26;133.80;;;;;18.40;1.00;;;;;;2285650;60;1111;-86
2023/11/01 15:27:29;375549.00;1.25;647.77;98944.00;0.33;171.75;;;;;18.20;1.00;;;;;;2285484;60;1029;-85
2023/11/01 15:29:56;249297.00;0.83;430.74;66114.00;0.22;115.04;;;;;18.30;1.00;;;;;;2285611;60;1064;-88
2023/11/01 15:32:23;99046.00;0.33;171.93;0.00;0.00;0.62;;;;;18.30;1.00;;;;;;2285526;60;1364;-87
2023/11/01 15:34:52;208181.00;0.69;360.00;0.00;0.00;0.62;;;;;18.40;1.00;;;;;;2285497;60;964;-86
2023/11/01 15:37:19;221319.00;0.74;382.61;43236.00;0.14;75.49;;;;;18.30;1.00;;;;;;2285561;60;893;-87
2023/11/01 15:39:47;0.00;0.00;0.62;0.00;0.00;0.62;;;;;18.20;1.00;;;;;;2285595;60;1024;-86
2023/11/01 15:42:14;0.00;0.00;0.62;0.00;0.00;0.62;;;;;18.10;1.00;;;;;;2285475;60;1919;-87
2023/11/01 15:44:42;16659.00;0.06;29.48;0.00;0.00;0.62;;;;;18.10;1.00;;;;;;2285480;60;1063;-87
2023/11/01 15:47:10;41272.00;0.14;72.09;0.00;0.00;0.62;;;;;17.90;1.00;;;;;;2285305;60;1054;-87
2023/11/01 15:49:37;118950.00;0.40;206.27;0.00;0.00;0.62;;;;;18.00;1.00;;;;;;2285472;60;977;-88
2023/11/01 15:52:05;0.00;0.00;0.62;0.00;0.00;0.62;;;;;17.50;1.00;;;;;;2285193;60;1115;-90
2023/11/01 15:54:32;168606.00;0.56;291.87;49540.00;0.17;86.39;;;;;17.30;1.00;;;;;;2285373;60;1522;-87
2023/11/01 15:56:59;255663.00;0.85;441.69;0.00;0.00;0.62;;;;;17.30;1.00;;;;;;2285285;60;1115;-86
2023/11/01 15:59:26;49968.00;0.17;87.13;0.00;0.00;0.62;;;;;17.30;1.00;;;;;;2285438;60;1047;-88
2023/11/01 16:01:55;34937.00;0.12;61.13;0.00;0.00;0.62;;;;;17.30;1.00;;;;;;2285400;60;1923;-87
2023/11/01 16:04:22;114620.00;0.38;198.80;6767.00;0.02;12.35;;;;;17.20;1.00;;;;;;2285258;60;1325;-90
2023/11/01 16:06:49;255500.00;0.85;441.41;0.00;0.00;0.62;;;;;17.30;1.00;;;;;;2285404;60;1071;-89
2023/11/01 16:09:17;515084.00;1.72;887.80;16108.00;0.05;28.53;;;;;17.20;1.00;;;;;;2285424;60;988;-86
2023/11/01 16:11:45;29939.00;0.10;52.48;0.00;0.00;0.62;;;;;17.10;1.00;;;;;;2285364;60;2282;-88
2023/11/01 16:14:12;81395.00;0.27;141.45;0.00;0.00;0.62;;;;;17.00;1.00;;;;;;2285373;60;1597;-87
2023/11/01 16:16:45;224653.00;0.75;388.35;66645.00;0.22;115.96;;;;;16.90;1.00;;;;;;2285457;60;1105;-86
2023/11/01 16:21:49;477852.00;1.59;823.70;84312.00;0.28;146.49;;;;;16.90;1.00;;;;;;2163202;59;1961;-87
2023/11/01 16:24:16;205477.00;0.68;355.35;54402.00;0.18;94.80;;;;;17.10;1.00;;;;;;2285144;60;1281;-87
2023/11/01 16:26:46;278553.00;0.93;481.05;49802.00;0.17;86.84;;;;;17.30;1.00;;;;;;2285260;60;1017;-88
2023/11/01 16:29:14;199290.00;0.66;344.70;0.00;0.00;0.62;;;;;17.30;1.00;;;;;;2285385;60;1711;-86
2023/11/01 16:31:44;155527.00;0.52;269.33;0.00;0.00;0.62;;;;;17.00;1.00;;;;;;2285389;60;1106;-88
2023/11/01 16:34:15;184886.00;0.62;319.90;0.00;0.00;0.62;;;;;16.90;1.00;;;;;;2282039;60;1339;-87
2023/11/01 16:36:42;7809.00;0.03;14.15;0.00;0.00;0.62;;;;;16.90;1.00;;;;;;2280605;60;1060;-87
2023/11/01 16:39:11;158013.00;0.53;273.62;0.00;0.00;0.62;;;;;16.90;1.00;;;;;;2280654;60;1043;-87
2023/11/01 16:44:12;320469.00;1.07;553.10;56360.00;0.19;98.18;;;;;16.60;1.00;;;;;;2286438;60;1404;-88
2023/11/01 16:46:40;240373.00;0.80;415.39;766.00;0.00;1.95;;;;;16.50;1.00;;;;;;2284612;60;1413;-88
2023/11/01 16:49:08;51116.00;0.17;89.12;0.00;0.00;0.62;;;;;16.60;1.00;;;;;;2284758;60;1072;-87
2023/11/01 16:51:35;55974.00;0.19;97.52;0.00;0.00;0.62;;;;;16.80;1.00;;;;;;2284787;60;1078;-87
2023/11/01 16:54:02;94590.00;0.32;164.23;0.00;0.00;0.62;;;;;16.90;1.00;;;;;;2286036;55;3815;-87
2023/11/01 16:56:33;90547.00;0.30;157.25;0.00;0.00;0.62;;;;;16.90;1.00;;;;;;2299699;55;3738;-88
2023/11/01 16:59:01;149640.00;0.50;259.19;0.00;0.00;0.62;;;;;16.90;1.00;;;;;;2288316;40;3606;-87
2023/11/01 17:03:58;169635.00;0.57;293.64;0.00;0.00;0.62;;;;;16.90;1.00;;;;;;2283844;60;1970;-88
2023/11/01 17:06:26;97512.00;0.33;169.28;0.00;0.00;0.62;;;;;16.80;1.00;;;;;;2280376;60;1037;-88
2023/11/01 17:08:53;237426.00;0.79;410.32;0.00;0.00;0.62;;;;;16.70;1.00;;;;;;2280593;60;1043;-87
2023/11/01 17:11:20;35235.00;0.12;61.64;0.00;0.00;0.62;;;;;16.60;1.00;;;;;;2280577;60;1143;-87
2023/11/01 17:13:49;121813.00;0.41;211.21;0.00;0.00;0.62;;;;;16.80;1.00;;;;;;2280517;60;1364;-88
2023/11/01 17:16:16;86803.00;0.29;150.79;0.00;0.00;0.62;;;;;16.70;1.00;;;;;;2280492;60;1133;-86
2023/11/01 17:18:44;124187.00;0.41;215.30;0.00;0.00;0.62;;;;;16.60;1.00;;;;;;2280478;60;1431;-89
2023/11/01 17:21:12;21188.00;0.07;37.33;0.00;0.00;0.62;;;;;16.40;1.00;;;;;;2301090;55;3734;-88
2023/11/01 17:23:42;91084.00;0.30;158.18;0.00;0.00;0.62;;;;;16.60;1.00;;;;;;2284847;61;1986;-86
2023/11/01 17:28:45;119137.00;0.40;206.59;0.00;0.00;0.62;;;;;17.10;1.00;;;;;;2304562;56;1825;-88
2023/11/01 17:31:16;903693.00;3.01;1562.61;85962.00;0.29;149.33;;;;;17.20;1.00;;;;;;2284962;61;1686;-88
2023/11/01 17:33:44;2085475.00;6.95;3801.34;238362.00;0.79;411.93;;;;;17.20;1.00;;;;;;2296979;55;3898;-88
2023/11/01 17:36:26;1691155.00;5.64;3008.25;150285.00;0.50;260.30;;;;;17.10;1.00;;;;;;2293861;55;3729;-88
2023/11/01 17:38:54;936664.00;3.12;1620.61;68666.00;0.23;119.46;;;;;17.20;1.00;;;;;;2284560;60;1716;-88
2023/11/01 17:41:52;1115389.00;3.72;1937.97;19482.00;0.06;34.37;;;;;17.20;1.00;;;;;;2296583;56;3719;-89
2023/11/01 17:44:20;612276.00;2.04;1055.42;10828.00;0.04;19.38;;;;;17.30;1.00;;;;;;2280288;60;1990;-91
2023/11/01 17:49:39;1658845.00;5.53;2945.74;143279.00;0.48;248.22;;;;;17.20;1.00;;;;;;2287639;39;3470;-88
2023/11/01 17:54:38;1257353.00;4.19;2194.27;145961.00;0.49;252.85;;;;;17.20;1.00;;;;;;2286425;60;1319;-88
2023/11/01 17:57:05;775137.00;2.58;1337.80;95945.00;0.32;166.57;;;;;17.20;1.00;;;;;;2299402;56;3752;-88
2023/11/01 18:04:32;805423.00;2.68;1390.58;95099.00;0.32;165.11;;;;;17.40;1.00;;;;;;2290010;55;3684;-87
2023/11/01 18:07:01;21100.00;0.07;37.17;0.00;0.00;0.62;;;;;17.10;1.00;;;;;;2284496;60;1664;-88
2023/11/01 18:09:28;131425.00;0.44;227.79;0.00;0.00;0.62;;;;;16.90;1.00;;;;;;2284428;60;1499;-89
2023/11/01 18:17:01;458589.00;1.53;790.56;0.00;0.00;0.62;;;;;16.50;1.00;;;;;;2270709;61;1340;-88
2023/11/01 18:19:29;161189.00;0.54;279.09;0.00;0.00;0.62;;;;;16.80;1.00;;;;;;2278544;55;3751;-87
2023/11/01 18:21:58;173377.00;0.58;300.08;0.00;0.00;0.62;;;;;17.00;1.00;;;;;;2321425;40;3832;-88
2023/11/01 18:46:18;654390.00;2.18;1128.23;0.00;0.00;0.62;;;;;15.40;1.00;;;;;;858654;40;3514;-89
2023/11/01 18:56:15;209243.00;0.70;361.83;0.00;0.00;0.62;;;;;15.20;1.00;;;;;;2274063;61;1345;-86
2023/11/01 19:03:52;4120.00;0.01;7.76;0.00;0.00;0.62;;;;;14.90;1.00;;;;;;1578586;55;2571;-89
2023/11/01 19:19:00;299823.00;1.00;517.62;0.00;0.00;0.62;;;;;15.00;1.00;;;;;;2273796;61;1305;-87
2023/11/01 19:26:29;207867.00;0.69;359.46;0.00;0.00;0.62;;;;;15.00;1.00;;;;;;2290381;55;3610;-90
2023/11/01 19:49:03;292492.00;0.97;505.01;0.00;0.00;0.62;;;;;14.50;1.00;;;;;;2288801;39;3463;-88
2023/11/01 19:53:59;446656.00;1.49;770.03;40401.00;0.13;70.58;;;;;14.30;1.00;;;;;;2286281;61;1498;-88
2023/11/01 20:24:06;435190.00;1.45;750.31;0.00;0.00;0.62;;;;;13.80;1.00;;;;;;2274739;61;1964;-88
2023/11/01 20:26:32;82798.00;0.28;143.87;0.00;0.00;0.62;;;;;13.90;1.00;;;;;;2273316;61;1054;-90
2023/11/01 20:29:00;23562.00;0.08;41.44;0.00;0.00;0.62;;;;;13.80;1.00;;;;;;2273229;61;1754;-88
2023/11/01 20:33:56;562612.00;1.88;969.70;0.00;0.00;0.62;;;;;13.70;1.00;;;;;;2288281;39;3701;-90
2023/11/01 20:41:27;858066.00;2.86;1482.59;324117.00;1.08;559.37;;;;;13.40;1.00;;;;;;2279168;61;980;-88
2023/11/01 20:51:32;282754.00;0.94;488.27;0.00;0.00;0.62;;;;;13.50;1.00;;;;;;2281899;61;1198;-88
2023/11/01 20:56:39;419458.00;1.40;723.26;43601.00;0.15;76.12;;;;;13.70;1.00;;;;;;1969161;60;1794;-88
2023/11/01 21:01:41;907925.00;3.03;1570.04;90382.00;0.30;156.97;;;;;13.50;1.00;;;;;;2282620;61;1331;-87
2023/11/01 21:04:08;579783.00;1.93;999.32;84710.00;0.28;147.17;;;;;13.40;1.00;;;;;;2299630;39;3634;-88
2023/11/01 21:14:13;720512.00;2.40;1242.83;92648.00;0.31;160.88;;;;;13.20;1.00;;;;;;2285247;55;3584;-87
2023/11/01 21:26:45;1507322.00;5.02;2656.91;90584.00;0.30;157.32;;;;;14.00;1.00;;;;;;1606710;40;3430;-90
2023/11/01 21:44:51;311197.00;1.04;537.17;0.00;0.00;0.62;;;;;15.60;1.00;;;;;;2294097;55;3584;-90
2023/11/01 21:52:25;446322.00;1.49;769.46;0.00;0.00;0.62;;;;;16.10;1.00;;;;;;2309059;55;3640;-89
2023/11/01 21:57:26;457909.00;1.53;789.39;0.00;0.00;0.62;;;;;16.20;1.00;;;;;;1590345;40;3422;-88
2023/11/01 22:07:35;842524.00;2.81;1455.39;0.00;0.00;0.62;;;;;16.50;1.00;;;;;;2286068;39;3500;-88
2023/11/01 22:10:14;49707.00;0.17;86.68;0.00;0.00;0.62;;;;;16.50;1.00;;;;;;2307777;40;3729;-88
2023/11/01 22:12:43;148902.00;0.50;257.92;0.00;0.00;0.62;;;;;16.60;1.00;;;;;;2284041;60;1719;-88
2023/11/01 22:15:17;62903.00;0.21;109.49;0.00;0.00;0.62;;;;;16.70;1.00;;;;;;2286972;39;3597;-90
2023/11/01 22:17:47;349124.00;1.16;602.36;0.00;0.00;0.62;;;;;16.80;1.00;;;;;;2284567;61;1210;-90
2023/11/01 22:20:19;127721.00;0.43;221.40;0.00;0.00;0.62;;;;;16.70;1.00;;;;;;2284799;61;1844;-89
2023/11/01 22:22:56;98205.00;0.33;170.47;0.00;0.00;0.62;;;;;16.70;1.00;;;;;;2284717;61;2002;-89
2023/11/01 22:25:33;226283.00;0.75;391.15;0.00;0.00;0.62;;;;;16.70;1.00;;;;;;2284072;60;1094;-89
2023/11/01 22:28:02;153676.00;0.51;266.14;0.00;0.00;0.62;;;;;16.50;1.00;;;;;;2284038;60;1685;-89
2023/11/01 22:30:30;59512.00;0.20;103.63;0.00;0.00;0.62;;;;;16.60;1.00;;;;;;2285866;55;3869;-88
2023/11/01 22:35:38;326046.00;1.09;562.69;0.00;0.00;0.62;;;;;16.50;1.00;;;;;;2273749;61;1332;-91
2023/11/01 22:38:06;152860.00;0.51;264.74;0.00;0.00;0.62;;;;;16.60;1.00;;;;;;2271874;61;1018;-89
2023/11/01 22:40:34;125546.00;0.42;217.65;0.00;0.00;0.62;;;;;16.30;1.00;;;;;;2271597;61;1000;-87
2023/11/01 22:43:01;170308.00;0.57;294.80;0.00;0.00;0.62;;;;;16.30;1.00;;;;;;2271743;61;2002;-88
2023/11/01 22:45:28;31761.00;0.11;55.63;0.00;0.00;0.62;;;;;16.40;1.00;;;;;;2271703;61;1550;-88
2023/11/01 22:47:54;199088.00;0.66;344.35;0.00;0.00;0.62;;;;;16.50;1.00;;;;;;2271739;61;987;-89
2023/11/01 22:50:21;87872.00;0.29;152.63;0.00;0.00;0.62;;;;;16.70;1.00;;;;;;2271763;61;921;-89
2023/11/01 22:52:48;198817.00;0.66;343.89;0.00;0.00;0.62;;;;;16.50;1.00;;;;;;2271845;61;1637;-86
2023/11/01 22:55:16;95234.00;0.32;165.34;0.00;0.00;0.62;;;;;16.50;1.00;;;;;;2271797;61;2154;-88
2023/11/01 22:57:43;35764.00;0.12;62.56;0.00;0.00;0.62;;;;;16.50;1.00;;;;;;2271810;61;1547;-88
2023/11/01 23:00:17;50849.00;0.17;88.65;0.00;0.00;0.62;;;;;16.50;1.00;;;;;;2271817;61;1544;-89
2023/11/01 23:02:43;0.00;0.00;0.62;0.00;0.00;0.62;;;;;16.60;1.00;;;;;;2271815;61;1364;-88
2023/11/01 23:05:10;64789.00;0.22;112.75;0.00;0.00;0.62;;;;;16.70;1.00;;;;;;2271857;61;2009;-89
2023/11/01 23:07:38;126341.00;0.42;219.02;0.00;0.00;0.62;;;;;16.70;1.00;;;;;;2271895;61;1031;-86
2023/11/01 23:10:06;159915.00;0.53;276.89;0.00;0.00;0.62;;;;;16.70;1.00;;;;;;2271801;61;1536;-88
2023/11/01 23:12:34;1921.00;0.01;3.95;0.00;0.00;0.62;;;;;16.80;1.00;;;;;;2271743;61;1607;-88
2023/11/01 23:15:01;10510.00;0.04;18.83;0.00;0.00;0.62;;;;;16.70;1.00;;;;;;2271819;61;1627;-87
2023/11/01 23:19:57;331076.00;1.10;571.34;33854.00;0.11;59.25;;;;;16.60;1.00;;;;;;2281713;60;1244;-90
2023/11/01 23:22:24;170964.00;0.57;295.93;0.00;0.00;0.62;;;;;16.30;1.00;;;;;;2279783;60;1653;-88
2023/11/01 23:24:51;198434.00;0.66;343.23;0.00;0.00;0.62;;;;;15.80;1.00;;;;;;2286301;39;3578;-88
2023/11/01 23:27:18;237217.00;0.79;409.96;0.00;0.00;0.62;;;;;15.80;1.00;;;;;;2284010;60;1397;-88
2023/11/01 23:29:47;105999.00;0.35;183.93;0.00;0.00;0.62;;;;;15.80;1.00;;;;;;2284038;60;996;-89
2023/11/01 23:32:15;0.00;0.00;0.62;0.00;0.00;0.62;;;;;15.90;1.00;;;;;;2283982;60;1399;-89
2023/11/01 23:34:44;0.00;0.00;0.62;0.00;0.00;0.62;;;;;15.80;1.00;;;;;;2284059;60;1091;-89
2023/11/01 23:37:22;500111.00;1.67;862.01;72843.00;0.24;126.67;;;;;15.80;1.00;;;;;;2283822;60;971;-88
2023/11/01 23:39:50;188368.00;0.63;325.90;0.00;0.00;0.62;;;;;15.50;1.00;;;;;;2284071;60;1110;-89
2023/11/01 23:42:19;359242.00;1.20;619.75;0.00;0.00;0.62;;;;;15.60;1.00;;;;;;2286623;39;3591;-88
2023/11/01 23:44:48;278857.00;0.93;481.57;9282.00;0.03;16.71;;;;;15.50;1.00;;;;;;2284503;60;1913;-87
2023/11/01 23:47:23;94994.00;0.32;164.93;8057.00;0.03;14.58;;;;;15.20;1.00;;;;;;2284695;60;2396;-89
2023/11/01 23:49:58;304528.00;1.02;525.70;26335.00;0.09;46.24;;;;;15.00;1.00;;;;;;2284772;60;1060;-89
2023/11/01 23:52:30;47956.00;0.16;83.65;0.00;0.00;0.62;;;;;14.80;1.00;;;;;;2284693;60;1289;-87
2023/11/01 23:54:57;69910.00;0.23;121.60;0.00;0.00;0.62;;;;;14.50;1.00;;;;;;2284687;60;1094;-87
2023/11/01 23:57:28;147061.00;0.49;254.74;0.00;0.00;0.62;;;;;14.20;1.00;;;;;;2284610;60;1592;-88
2023/11/01 23:59:58;49999.00;0.17;87.18;0.00;0.00;0.62;;;;;14.20;1.00;;;;;;2284498;60;991;-90
